createdAt,value
2019-01-04T00:01:30.841Z,7.83
2019-01-04T00:04:01.216Z,7.10
2019-01-04T00:06:36.682Z,6.93
2019-01-04T00:09:08.100Z,7.07
2019-01-04T00:11:38.489Z,7.00
2019-01-04T00:14:08.879Z,7.23
2019-01-04T00:16:39.256Z,7.67
2019-01-04T00:19:10.343Z,7.20
2019-01-04T00:21:40.762Z,7.63
2019-01-04T00:24:11.145Z,8.10
2019-01-04T00:26:42.298Z,7.83
2019-01-04T00:29:12.696Z,8.50
2019-01-04T00:31:43.085Z,8.50
2019-01-04T00:34:13.458Z,7.80
2019-01-04T00:36:43.877Z,8.80
2019-01-04T00:39:15.271Z,8.50
2019-01-04T00:41:45.660Z,8.80
2019-01-04T00:44:16.056Z,8.87
2019-01-04T00:46:48.693Z,7.90
2019-01-04T00:49:19.066Z,8.00
2019-01-04T00:51:50.506Z,9.40
2019-01-04T00:54:39.996Z,8.07
2019-01-04T00:58:00.295Z,9.07
2019-01-04T01:04:36.901Z,9.33
2019-01-04T01:07:13.605Z,8.60
2019-01-04T01:10:23.215Z,8.93
2019-01-04T01:13:20.112Z,10.33
2019-01-04T01:16:01.587Z,9.07
2019-01-04T01:21:59.382Z,10.40
2019-01-04T01:24:46.166Z,11.07
2019-01-04T01:27:43.158Z,10.00
2019-01-04T01:30:33.745Z,9.73
2019-01-04T01:33:30.648Z,10.90
2019-01-04T01:36:45.302Z,10.63
2019-01-04T01:40:20.108Z,10.73
2019-01-04T01:43:32.067Z,9.60
2019-01-04T01:46:25.373Z,10.37
2019-01-04T01:49:15.617Z,11.13
2019-01-04T01:54:27.730Z,10.73
2019-01-04T01:56:58.320Z,10.40
2019-01-04T01:59:28.933Z,10.80
2019-01-04T02:02:00.086Z,11.17
2019-01-04T02:04:30.483Z,10.60
2019-01-04T02:07:00.850Z,9.30
2019-01-04T02:09:32.259Z,10.23
2019-01-04T02:12:02.594Z,11.37
2019-01-04T02:14:33.728Z,9.43
2019-01-04T02:17:04.116Z,10.37
2019-01-04T02:19:34.520Z,9.90
2019-01-04T02:22:04.917Z,11.20
2019-01-04T02:24:35.285Z,10.90
2019-01-04T02:27:08.770Z,10.30
2019-01-04T02:29:39.157Z,11.27
2019-01-04T02:32:09.542Z,10.97
2019-01-04T02:34:45.015Z,11.53
2019-01-04T02:37:15.403Z,11.67
2019-01-04T02:39:45.967Z,11.00
2019-01-04T02:42:19.420Z,11.10
2019-01-04T02:44:50.745Z,11.00
2019-01-04T02:47:21.904Z,12.00
2019-01-04T02:49:53.076Z,11.70
2019-01-04T02:52:24.471Z,11.70
2019-01-04T02:54:54.848Z,11.23
2019-01-04T02:57:25.240Z,12.20
2019-01-04T02:59:55.622Z,12.00
2019-01-04T03:02:33.527Z,11.93
2019-01-04T03:05:03.910Z,11.73
2019-01-04T03:07:35.048Z,11.90
2019-01-04T03:10:05.445Z,13.37
2019-01-04T03:12:35.831Z,12.43
2019-01-04T03:15:07.227Z,12.73
2019-01-04T03:17:37.882Z,12.33
2019-01-04T03:20:09.034Z,13.13
2019-01-04T03:22:39.416Z,13.57
2019-01-04T03:25:09.831Z,13.10
2019-01-04T03:27:40.411Z,12.77
2019-01-04T03:30:10.780Z,12.73
2019-01-04T03:32:41.132Z,11.93
2019-01-04T03:35:12.517Z,13.33
2019-01-04T03:37:43.662Z,12.70
2019-01-04T03:40:14.841Z,12.70
2019-01-04T03:42:49.491Z,13.20
2019-01-04T03:45:19.811Z,14.77
2019-01-04T03:47:50.217Z,13.57
2019-01-04T03:50:22.642Z,12.07
2019-01-04T03:52:53.792Z,13.07
2019-01-04T03:55:25.336Z,12.87
2019-01-04T03:57:55.720Z,13.07
2019-01-04T04:00:26.097Z,11.13
2019-01-04T04:02:57.569Z,12.37
2019-01-04T04:05:27.941Z,13.00
2019-01-04T04:07:58.513Z,12.27
2019-01-04T04:10:29.972Z,12.90
2019-01-04T04:13:00.342Z,13.07
2019-01-04T04:15:49.903Z,12.70
2019-01-04T04:18:20.221Z,12.43
2019-01-04T04:20:50.619Z,12.23
2019-01-04T04:23:21.018Z,11.77
2019-01-04T04:25:51.409Z,12.37
2019-01-04T04:28:23.841Z,12.43
2019-01-04T04:30:55.013Z,12.80
2019-01-04T04:33:25.399Z,12.97
2019-01-04T04:35:56.051Z,13.43
2019-01-04T04:38:27.220Z,12.00
2019-01-04T04:40:57.667Z,12.33
2019-01-04T04:43:27.985Z,13.27
2019-01-04T04:45:58.707Z,12.73
2019-01-04T04:48:29.088Z,12.17
2019-01-04T04:50:59.410Z,12.67
2019-01-04T04:53:29.817Z,12.67
2019-01-04T04:56:00.138Z,12.13
2019-01-04T04:58:31.527Z,12.30
2019-01-04T05:01:02.964Z,13.00
2019-01-04T05:03:33.274Z,12.53
2019-01-04T05:06:03.654Z,12.77
2019-01-04T05:08:34.047Z,11.80
2019-01-04T05:11:04.694Z,12.47
2019-01-04T05:13:35.851Z,13.03
2019-01-04T05:16:06.968Z,13.43
2019-01-04T05:18:37.343Z,13.13
2019-01-04T05:21:08.045Z,13.07
2019-01-04T05:23:38.638Z,11.70
2019-01-04T05:26:09.010Z,12.13
2019-01-04T05:28:39.328Z,13.17
2019-01-04T05:31:10.788Z,11.83
2019-01-04T05:33:43.986Z,12.50
2019-01-04T05:36:14.366Z,12.10
2019-01-04T05:38:45.036Z,13.33
2019-01-04T05:41:16.166Z,12.40
2019-01-04T05:43:47.311Z,12.73
2019-01-04T05:46:17.678Z,12.97
2019-01-04T05:48:50.099Z,13.43
2019-01-04T05:51:20.485Z,12.70
2019-01-04T05:53:53.942Z,13.23
2019-01-04T05:56:24.329Z,13.13
2019-01-04T05:58:54.718Z,12.83
2019-01-04T06:01:25.335Z,12.30
2019-01-04T06:03:56.781Z,13.10
2019-01-04T06:06:27.928Z,12.60
2019-01-04T06:08:59.101Z,12.23
2019-01-04T06:11:30.510Z,13.33
2019-01-04T06:16:45.716Z,12.67
2019-01-04T06:19:16.863Z,12.50
2019-01-04T06:21:47.244Z,12.33
2019-01-04T06:24:17.916Z,11.90
2019-01-04T06:26:48.293Z,11.97
2019-01-04T06:29:38.047Z,12.57
2019-01-04T06:32:08.437Z,12.43
2019-01-04T06:34:38.801Z,11.27
2019-01-04T06:37:09.201Z,13.43
2019-01-04T06:39:40.349Z,11.90
2019-01-04T06:42:11.692Z,12.47
2019-01-04T06:44:42.100Z,11.60
2019-01-04T06:47:17.991Z,12.40
2019-01-04T06:49:48.390Z,11.93
2019-01-04T06:52:19.044Z,11.83
2019-01-04T06:55:16.548Z,10.57
2019-01-04T06:57:49.950Z,13.17
2019-01-04T07:00:22.404Z,12.30
2019-01-04T07:02:52.730Z,11.60
2019-01-04T07:05:24.127Z,10.93
2019-01-04T07:07:54.533Z,12.17
2019-01-04T07:10:25.105Z,11.47
2019-01-04T07:12:55.475Z,11.00
2019-01-04T07:15:27.927Z,11.80
2019-01-04T07:17:58.234Z,12.07
2019-01-04T07:20:28.610Z,11.90
2019-01-04T07:22:59.301Z,11.70
2019-01-04T07:25:30.443Z,12.30
2019-01-04T07:28:01.847Z,11.77
2019-01-04T07:30:32.318Z,11.33
2019-01-04T07:33:03.405Z,12.17
2019-01-04T07:35:38.989Z,11.73
2019-01-04T07:38:09.298Z,12.00
2019-01-04T07:40:39.667Z,11.70
2019-01-04T07:43:10.077Z,11.60
2019-01-04T07:45:41.234Z,11.53
2019-01-04T07:48:12.573Z,10.70
2019-01-04T07:50:43.734Z,11.57
2019-01-04T07:53:14.289Z,11.50
2019-01-04T07:55:46.708Z,11.83
2019-01-04T07:58:17.108Z,11.37
2019-01-04T08:00:47.486Z,12.27
2019-01-04T08:03:18.619Z,12.53
2019-01-04T08:05:50.288Z,11.90
2019-01-04T08:08:21.123Z,12.17
2019-01-04T08:10:52.514Z,10.53
2019-01-04T08:13:25.984Z,11.40
2019-01-04T08:15:56.369Z,11.70
2019-01-04T08:18:26.742Z,11.23
2019-01-04T08:20:57.087Z,12.57
2019-01-04T08:23:48.839Z,12.50
2019-01-04T08:26:19.419Z,11.07
2019-01-04T08:28:49.741Z,11.30
2019-01-04T08:31:20.299Z,11.13
2019-01-04T08:34:09.809Z,11.43
2019-01-04T08:36:40.373Z,11.13
2019-01-04T08:39:10.755Z,10.67
2019-01-04T08:41:41.104Z,10.70
2019-01-04T08:44:12.252Z,10.93
2019-01-04T08:46:43.394Z,11.13
2019-01-04T08:49:14.560Z,11.50
2019-01-04T08:51:44.943Z,11.47
2019-01-04T08:54:15.335Z,10.87
2019-01-04T08:56:46.719Z,11.30
2019-01-04T08:59:17.089Z,11.27
2019-01-04T09:01:47.469Z,11.10
2019-01-04T09:04:18.052Z,11.57
2019-01-04T09:06:48.436Z,10.70
2019-01-04T09:09:18.757Z,10.17
2019-01-04T09:11:49.180Z,11.37
2019-01-04T09:14:19.565Z,11.50
2019-01-04T09:16:49.947Z,11.00
2019-01-04T09:19:20.596Z,11.17
2019-01-04T09:21:53.983Z,10.80
2019-01-04T09:24:25.123Z,10.20
2019-01-04T09:26:55.524Z,11.60
2019-01-04T09:29:25.905Z,10.77
2019-01-04T09:31:56.280Z,10.70
2019-01-04T09:34:27.891Z,12.13
2019-01-04T09:36:59.299Z,11.33
2019-01-04T09:39:29.954Z,11.40
2019-01-04T09:42:01.124Z,11.20
2019-01-04T09:44:31.507Z,12.07
2019-01-04T09:47:01.894Z,11.73
2019-01-04T09:49:37.350Z,10.37
2019-01-04T09:52:12.837Z,11.80
2019-01-04T09:54:43.211Z,11.43
2019-01-04T09:57:13.628Z,11.23
2019-01-04T09:59:44.005Z,11.93
2019-01-04T10:02:14.332Z,12.23
2019-01-04T10:04:44.678Z,12.40
2019-01-04T10:07:15.813Z,11.43
2019-01-04T10:09:46.967Z,11.47
2019-01-04T10:12:18.134Z,12.07
2019-01-04T10:14:48.517Z,10.70
2019-01-04T10:17:18.886Z,11.47
2019-01-04T10:19:49.491Z,11.10
2019-01-04T10:22:19.822Z,11.30
2019-01-04T10:24:50.977Z,10.73
2019-01-04T10:27:22.877Z,10.87
2019-01-04T10:32:55.003Z,10.83
2019-01-04T10:35:26.093Z,9.70
2019-01-04T10:37:56.482Z,9.53
2019-01-04T10:40:27.584Z,9.90
2019-01-04T10:42:57.906Z,9.07
2019-01-04T10:45:28.282Z,9.10
2019-01-04T10:48:00.431Z,9.43
2019-01-04T10:50:30.803Z,9.50
2019-01-04T10:53:01.174Z,8.80
2019-01-04T10:55:31.573Z,8.97
2019-01-04T10:58:22.336Z,9.53
2019-01-04T11:00:52.750Z,8.97
2019-01-04T11:03:23.885Z,9.43
2019-01-04T11:05:54.271Z,9.90
2019-01-04T11:08:44.048Z,9.50
2019-01-04T11:11:21.591Z,9.40
2019-01-04T11:13:53.787Z,8.40
2019-01-04T11:16:24.178Z,9.27
2019-01-04T11:18:54.563Z,8.50
2019-01-04T11:21:24.951Z,8.67
2019-01-04T11:24:15.395Z,9.07
2019-01-04T11:26:48.748Z,10.07
2019-01-04T11:29:24.350Z,9.20
2019-01-04T11:32:21.053Z,9.47
2019-01-04T11:34:53.937Z,8.93
2019-01-04T11:37:34.588Z,9.30
2019-01-04T11:40:47.122Z,9.67
2019-01-04T11:43:52.269Z,8.97
2019-01-04T11:46:45.434Z,9.20
2019-01-04T11:49:32.177Z,9.17
2019-01-04T11:54:46.288Z,9.67
2019-01-04T11:57:16.912Z,8.27
2019-01-04T11:59:48.055Z,8.03
2019-01-04T12:02:19.509Z,7.27
2019-01-04T12:04:50.919Z,7.97
2019-01-04T12:07:21.485Z,7.00
2019-01-04T12:09:52.661Z,7.00
2019-01-04T12:12:23.034Z,7.80
2019-01-04T12:14:53.408Z,7.20
2019-01-04T12:17:23.823Z,7.00
2019-01-04T12:19:54.208Z,7.30
2019-01-04T12:22:25.612Z,7.20
2019-01-04T12:24:56.317Z,7.33
2019-01-04T12:27:27.471Z,7.10
2019-01-04T12:29:58.623Z,7.57
2019-01-04T12:32:29.805Z,8.03
2019-01-04T12:35:00.172Z,8.10
2019-01-04T12:37:49.647Z,7.43
2019-01-04T12:40:20.029Z,6.97
2019-01-04T12:42:50.407Z,7.70
2019-01-04T12:45:21.573Z,7.40
2019-01-04T12:47:52.141Z,7.30
2019-01-04T12:50:42.876Z,6.90
2019-01-04T12:53:13.249Z,7.13
2019-01-04T12:55:43.621Z,6.67
2019-01-04T12:58:14.197Z,6.13
2019-01-04T13:00:44.582Z,7.20
2019-01-04T13:03:14.973Z,6.57
2019-01-04T13:05:45.387Z,7.07
2019-01-04T13:08:15.763Z,7.27
2019-01-04T13:10:46.142Z,7.03
2019-01-04T13:13:18.596Z,6.70
2019-01-04T13:15:48.968Z,6.80
2019-01-04T13:18:19.542Z,7.40
2019-01-04T13:20:51.985Z,7.10
2019-01-04T13:23:22.652Z,7.13
2019-01-04T13:25:53.794Z,6.40
2019-01-04T13:28:25.968Z,6.33
2019-01-04T13:30:56.349Z,6.80
2019-01-04T13:33:26.931Z,7.33
2019-01-04T13:35:57.326Z,6.43
2019-01-04T13:38:27.711Z,6.50
2019-01-04T13:40:58.299Z,6.27
2019-01-04T13:43:30.176Z,6.30
2019-01-04T13:46:00.564Z,6.57
2019-01-04T13:48:30.939Z,6.30
2019-01-04T13:51:02.057Z,5.60
2019-01-04T13:53:32.446Z,5.93
2019-01-04T13:56:02.818Z,5.60
2019-01-04T13:58:33.991Z,5.97
2019-01-04T14:01:05.399Z,5.80
2019-01-04T14:03:36.551Z,5.63
2019-01-04T14:06:07.657Z,5.77
2019-01-04T14:08:38.037Z,5.50
2019-01-04T14:11:08.417Z,5.97
2019-01-04T14:13:40.805Z,5.40
2019-01-04T14:16:11.191Z,5.23
2019-01-04T14:19:02.996Z,5.40
2019-01-04T14:21:33.616Z,4.67
2019-01-04T14:24:03.992Z,5.13
2019-01-04T14:26:34.383Z,4.57
2019-01-04T14:29:04.767Z,4.67
2019-01-04T14:31:35.335Z,4.87
2019-01-04T14:34:05.740Z,4.30
2019-01-04T14:36:36.878Z,4.70
2019-01-04T14:39:07.261Z,4.73
2019-01-04T14:41:37.667Z,4.80
2019-01-04T14:44:08.053Z,4.30
2019-01-04T14:46:38.423Z,4.77
2019-01-04T14:49:10.582Z,4.27
2019-01-04T14:51:41.973Z,4.03
2019-01-04T14:54:12.397Z,3.93
2019-01-04T14:56:43.164Z,3.47
2019-01-04T14:59:13.538Z,3.53
2019-01-04T15:01:43.918Z,3.07
2019-01-04T15:04:14.259Z,3.17
2019-01-04T15:06:45.395Z,3.40
2019-01-04T15:09:16.537Z,3.60
2019-01-04T15:11:46.935Z,3.80
2019-01-04T15:14:17.319Z,3.03
2019-01-04T15:16:48.028Z,3.03
2019-01-04T15:19:19.193Z,3.13
2019-01-04T15:21:49.578Z,5.37
2019-01-04T15:24:20.141Z,4.30
2019-01-04T15:26:53.639Z,3.30
2019-01-04T15:29:24.024Z,3.00
2019-01-04T15:31:54.395Z,2.97
2019-01-04T15:34:24.974Z,3.03
2019-01-04T15:36:55.553Z,2.90
2019-01-04T15:39:26.696Z,3.90
2019-01-04T15:41:58.044Z,3.37
2019-01-04T15:44:29.181Z,3.00
2019-01-04T15:47:00.337Z,3.30
2019-01-04T15:49:33.528Z,3.00
2019-01-04T15:52:03.910Z,3.40
2019-01-04T15:54:34.475Z,3.47
2019-01-04T15:57:05.107Z,3.20
2019-01-04T15:59:36.474Z,3.60
2019-01-04T16:02:06.851Z,3.17
2019-01-04T16:04:37.253Z,3.60
2019-01-04T16:07:07.847Z,3.30
2019-01-04T16:09:38.236Z,2.80
2019-01-04T16:12:08.643Z,3.33
2019-01-04T16:14:58.685Z,3.10
2019-01-04T16:20:11.566Z,3.70
2019-01-04T16:22:47.066Z,3.60
2019-01-04T16:25:17.438Z,3.40
2019-01-04T16:27:55.174Z,3.00
2019-01-04T16:30:25.826Z,3.50
2019-01-04T16:32:56.961Z,3.20
2019-01-04T16:35:27.701Z,3.10
2019-01-04T16:37:59.020Z,3.03
2019-01-04T16:40:29.390Z,2.97
2019-01-04T16:43:01.490Z,3.23
2019-01-04T16:45:38.151Z,3.47
2019-01-04T16:48:09.404Z,3.20
2019-01-04T16:50:41.767Z,3.57
2019-01-04T16:53:12.808Z,3.37
2019-01-04T16:55:43.212Z,3.40
2019-01-04T16:58:14.352Z,3.27
2019-01-04T17:00:45.682Z,4.00
2019-01-04T17:03:16.803Z,4.27
2019-01-04T17:05:47.375Z,4.73
2019-01-04T17:08:18.517Z,5.20
2019-01-04T17:10:49.676Z,5.87
2019-01-04T17:13:20.055Z,5.30
2019-01-04T17:15:50.426Z,5.93
2019-01-04T17:18:21.047Z,6.40
2019-01-04T17:20:52.191Z,5.80
2019-01-04T17:23:22.559Z,5.50
2019-01-04T17:25:59.040Z,5.13
2019-01-04T17:28:48.795Z,4.80
2019-01-04T17:31:19.197Z,5.00
2019-01-04T17:33:50.275Z,4.77
2019-01-04T17:36:20.868Z,4.07
2019-01-04T17:38:51.978Z,4.93
2019-01-04T17:41:22.292Z,4.90
2019-01-04T17:43:53.688Z,4.27
2019-01-04T17:46:24.843Z,4.70
2019-01-04T17:48:55.226Z,4.33
2019-01-04T17:51:25.596Z,4.57
2019-01-04T17:53:56.202Z,4.53
2019-01-04T17:56:26.567Z,4.00
2019-01-04T17:58:57.172Z,4.13
2019-01-04T18:01:27.801Z,4.10
2019-01-04T18:03:59.156Z,4.27
2019-01-04T18:06:30.294Z,3.90
2019-01-04T18:09:01.717Z,4.80
2019-01-04T18:11:32.037Z,4.40
2019-01-04T18:14:02.526Z,4.77
2019-01-04T18:16:32.862Z,5.20
2019-01-04T18:19:05.297Z,5.93
2019-01-04T18:21:35.671Z,7.87
2019-01-04T18:24:11.140Z,7.57
2019-01-04T18:27:00.144Z,5.73
2019-01-04T18:29:31.249Z,6.37
2019-01-04T18:32:01.621Z,5.87
2019-01-04T18:34:31.989Z,5.93
2019-01-04T18:37:06.763Z,6.13
2019-01-04T18:39:37.148Z,6.63
2019-01-04T18:42:12.678Z,7.07
2019-01-04T18:44:48.171Z,7.70
2019-01-04T18:47:18.575Z,7.63
2019-01-04T18:49:49.012Z,7.90
2019-01-04T18:52:19.275Z,7.37
2019-01-04T18:54:51.174Z,7.10
2019-01-04T18:57:25.649Z,6.70
2019-01-04T18:59:56.065Z,5.97
2019-01-04T19:02:26.443Z,6.63
2019-01-04T19:04:56.835Z,5.83
2019-01-04T19:07:28.206Z,6.70
2019-01-04T19:09:58.590Z,6.37
2019-01-04T19:12:28.975Z,6.50
2019-01-04T19:15:07.345Z,7.20
2019-01-04T19:17:38.479Z,6.83
2019-01-04T19:20:09.624Z,7.77
2019-01-04T19:22:41.529Z,6.60
2019-01-04T19:25:11.901Z,6.80
2019-01-04T19:27:42.277Z,6.83
2019-01-04T19:30:12.633Z,7.60
2019-01-04T19:32:45.046Z,6.40
2019-01-04T19:35:15.421Z,7.07
2019-01-04T19:38:07.597Z,6.83
2019-01-04T19:40:38.748Z,7.10
2019-01-04T19:43:09.889Z,7.30
2019-01-04T19:45:40.292Z,7.47
2019-01-04T19:48:10.675Z,7.00
2019-01-04T19:50:41.067Z,7.10
2019-01-04T19:53:11.412Z,7.33
2019-01-04T19:55:42.563Z,6.73
2019-01-04T19:58:12.882Z,6.87
2019-01-04T20:00:44.060Z,7.23
2019-01-04T20:03:14.437Z,7.33
2019-01-04T20:09:24.618Z,7.30
2019-01-04T20:12:43.583Z,8.13
2019-01-04T20:15:28.887Z,8.97
2019-01-04T20:18:08.101Z,8.03
2019-01-04T20:20:44.003Z,8.13
2019-01-04T20:23:16.868Z,7.63
2019-01-04T20:25:59.098Z,7.73
2019-01-04T20:28:29.487Z,7.60
2019-01-04T20:31:02.734Z,7.50
2019-01-04T20:33:48.132Z,7.40
2019-01-04T20:36:18.504Z,7.03
2019-01-04T20:38:49.914Z,7.53
2019-01-04T20:41:20.309Z,8.03
2019-01-04T20:43:56.168Z,8.27
2019-01-04T20:46:38.543Z,7.90
2019-01-04T20:49:17.573Z,7.90
2019-01-04T20:52:05.896Z,7.83
2019-01-04T20:54:36.278Z,7.67
2019-01-04T20:57:06.668Z,8.03
2019-01-04T20:59:55.371Z,7.67
2019-01-04T21:02:31.471Z,8.00
2019-01-04T21:05:04.900Z,8.03
2019-01-04T21:08:02.262Z,7.93
2019-01-04T21:11:07.547Z,7.07
2019-01-04T21:13:40.883Z,8.43
2019-01-04T21:16:20.259Z,7.20
2019-01-04T21:18:53.091Z,7.37
2019-01-04T21:21:26.071Z,7.07
2019-01-04T21:24:14.596Z,7.00
2019-01-04T21:26:45.247Z,7.10
2019-01-04T21:29:34.622Z,7.30
2019-01-04T21:32:21.176Z,7.40
2019-01-04T21:34:57.185Z,7.20
2019-01-04T21:37:28.344Z,6.97
2019-01-04T21:39:58.717Z,6.90
2019-01-04T21:42:47.462Z,7.27
2019-01-04T21:45:20.560Z,7.43
2019-01-04T21:47:59.926Z,7.63
2019-01-04T21:50:39.458Z,7.27
2019-01-04T21:53:21.888Z,8.13
2019-01-04T21:56:04.062Z,7.53
2019-01-04T21:58:52.599Z,7.40
2019-01-04T22:01:40.979Z,7.43
2019-01-04T22:04:29.640Z,7.07
2019-01-04T22:07:02.813Z,7.00
2019-01-04T22:09:33.197Z,7.40
2019-01-04T22:12:18.639Z,7.30
2019-01-04T22:14:58.591Z,7.63
2019-01-04T22:17:28.983Z,7.17
2019-01-04T22:20:07.884Z,6.70
2019-01-04T22:22:53.433Z,7.37
2019-01-04T22:25:36.857Z,6.47
2019-01-04T22:31:19.656Z,6.57
2019-01-04T22:34:05.103Z,7.17
2019-01-04T22:36:35.495Z,6.97
2019-01-04T22:39:23.964Z,6.80
2019-01-04T22:42:06.425Z,6.63
2019-01-04T22:45:13.866Z,7.03
2019-01-04T22:47:47.737Z,7.37
2019-01-04T22:50:21.046Z,6.87
2019-01-04T22:53:07.426Z,6.77
2019-01-04T22:55:37.992Z,6.63
2019-01-04T22:58:11.179Z,7.93
2019-01-04T23:00:47.122Z,6.90
2019-01-04T23:03:35.266Z,6.83
2019-01-04T23:06:11.196Z,7.50
2019-01-04T23:08:47.225Z,6.97
2019-01-04T23:11:17.837Z,7.40
2019-01-04T23:14:07.226Z,7.00
2019-01-04T23:16:37.614Z,7.43
2019-01-04T23:19:08.001Z,7.33
2019-01-04T23:21:50.559Z,7.43
2019-01-04T23:24:26.912Z,7.23
2019-01-04T23:27:15.560Z,7.07
2019-01-04T23:29:48.608Z,8.30
2019-01-04T23:32:19.216Z,7.70
2019-01-04T23:35:08.524Z,7.63
2019-01-04T23:37:56.685Z,7.67
2019-01-04T23:40:28.117Z,7.83
2019-01-04T23:43:04.033Z,8.17
2019-01-04T23:45:41.127Z,7.90
2019-01-04T23:48:15.458Z,8.53
2019-01-04T23:50:51.648Z,7.90
2019-01-04T23:53:45.889Z,8.10
2019-01-04T23:56:16.281Z,8.37
2019-01-04T23:59:05.269Z,8.80
